createdAt,value
2024-01-06T00:00:58.640Z,88.72
2024-01-06T00:03:28.719Z,89.71
2024-01-06T00:06:02.192Z,89.54
2024-01-06T00:08:30.585Z,89.86
2024-01-06T00:10:59.102Z,89.88
2024-01-06T00:13:28.712Z,89.57
2024-01-06T00:15:56.882Z,89.98
2024-01-06T00:18:25.299Z,90.22
2024-01-06T00:20:53.638Z,89.91
2024-01-06T00:23:23.667Z,90.34
2024-01-06T00:25:51.680Z,90.72
2024-01-06T00:28:20.515Z,90.78
2024-01-06T00:30:50.453Z,90.98
2024-01-06T00:33:18.862Z,90.52
2024-01-06T00:35:47.048Z,90.64
2024-01-06T00:38:15.278Z,90.83
2024-01-06T00:40:43.594Z,91.15
2024-01-06T00:43:11.744Z,91.28
2024-01-06T00:45:39.982Z,90.79
2024-01-06T00:48:10.876Z,91.23
2024-01-06T00:50:39.163Z,91.19
2024-01-06T00:53:07.385Z,91.53
2024-01-06T00:55:35.581Z,92.32
2024-01-06T00:58:03.638Z,91.85
2024-01-06T01:00:32.068Z,92.09
2024-01-06T01:03:00.429Z,92.30
2024-01-06T01:05:29.930Z,92.56
2024-01-06T01:07:57.967Z,92.66
2024-01-06T01:10:26.057Z,92.49
2024-01-06T01:12:54.168Z,93.09
2024-01-06T01:15:28.461Z,92.55
2024-01-06T01:17:59.275Z,92.76
2024-01-06T01:24:29.064Z,92.55
2024-01-06T01:27:22.714Z,93.15
2024-01-06T01:29:53.887Z,92.76
2024-01-06T01:32:22.456Z,93.08
2024-01-06T01:34:53.772Z,92.57
2024-01-06T01:37:22.945Z,93.21
2024-01-06T01:39:52.450Z,93.06
2024-01-06T01:42:20.666Z,92.59
2024-01-06T01:44:49.036Z,92.45
2024-01-06T01:47:19.926Z,92.92
2024-01-06T01:49:48.971Z,92.83
2024-01-06T01:52:18.196Z,92.23
2024-01-06T01:54:47.639Z,91.87
2024-01-06T01:57:19.208Z,92.62
2024-01-06T01:59:48.862Z,92.24
2024-01-06T02:02:19.484Z,92.72
2024-01-06T02:04:47.782Z,92.48
2024-01-06T02:07:16.024Z,92.26
2024-01-06T02:09:44.733Z,92.41
2024-01-06T02:12:13.757Z,92.97
2024-01-06T02:14:44.477Z,92.63
2024-01-06T02:17:12.587Z,93.26
2024-01-06T02:19:41.228Z,92.66
2024-01-06T02:22:10.861Z,93.07
2024-01-06T02:24:39.139Z,93.23
2024-01-06T02:27:09.398Z,92.88
2024-01-06T02:29:38.301Z,93.21
2024-01-06T02:32:07.398Z,93.28
2024-01-06T02:34:36.117Z,93.23
2024-01-06T02:37:05.206Z,93.36
2024-01-06T02:39:34.827Z,93.03
2024-01-06T02:42:04.403Z,92.65
2024-01-06T02:44:32.442Z,93.05
2024-01-06T02:47:00.749Z,92.94
2024-01-06T02:49:30.179Z,93.45
2024-01-06T02:51:59.253Z,92.88
2024-01-06T02:54:27.970Z,93.33
2024-01-06T02:56:57.693Z,93.21
2024-01-06T02:59:25.911Z,93.39
2024-01-06T03:01:54.350Z,93.29
2024-01-06T03:04:22.733Z,92.92
2024-01-06T03:06:54.970Z,93.17
2024-01-06T03:09:23.939Z,93.07
2024-01-06T03:11:52.596Z,93.01
2024-01-06T03:14:22.338Z,93.23
2024-01-06T03:16:50.918Z,93.14
2024-01-06T03:19:20.152Z,93.57
2024-01-06T03:21:48.888Z,93.72
2024-01-06T03:24:17.160Z,93.57
2024-01-06T03:26:45.200Z,93.90
2024-01-06T03:29:13.828Z,93.84
2024-01-06T03:31:46.703Z,94.23
2024-01-06T03:34:15.406Z,94.42
2024-01-06T03:36:44.087Z,94.41
2024-01-06T03:39:14.611Z,94.74
2024-01-06T03:41:42.665Z,94.40
2024-01-06T03:44:12.280Z,94.77
2024-01-06T03:46:40.264Z,94.70
2024-01-06T03:49:10.314Z,94.52
2024-01-06T03:51:38.554Z,94.64
2024-01-06T03:54:07.090Z,94.36
2024-01-06T03:56:35.298Z,94.33
2024-01-06T03:59:03.480Z,94.74
2024-01-06T04:01:36.286Z,94.82
2024-01-06T04:04:04.681Z,94.25
2024-01-06T04:06:35.927Z,95.00
2024-01-06T04:09:04.877Z,94.54
2024-01-06T04:11:33.427Z,94.38
2024-01-06T04:14:01.532Z,94.93
2024-01-06T04:16:30.026Z,94.42
2024-01-06T04:18:58.424Z,94.35
2024-01-06T04:21:26.667Z,94.85
2024-01-06T04:23:57.275Z,94.72
2024-01-06T04:26:25.517Z,94.61
2024-01-06T04:28:54.642Z,94.64
2024-01-06T04:31:22.904Z,94.34
2024-01-06T04:33:53.251Z,94.51
2024-01-06T04:36:21.431Z,94.34
2024-01-06T04:38:49.724Z,94.54
2024-01-06T04:41:19.592Z,94.66
2024-01-06T04:43:47.650Z,94.18
2024-01-06T04:46:16.066Z,94.83
2024-01-06T04:48:44.905Z,95.16
2024-01-06T04:51:13.650Z,94.88
2024-01-06T04:53:42.721Z,94.84
2024-01-06T04:56:11.037Z,95.35
2024-01-06T04:58:40.934Z,95.26
2024-01-06T05:01:09.729Z,95.78
2024-01-06T05:03:38.057Z,95.38
2024-01-06T05:06:06.670Z,95.87
2024-01-06T05:08:34.791Z,95.51
2024-01-06T05:11:03.564Z,95.15
2024-01-06T05:13:31.992Z,95.17
2024-01-06T05:16:01.961Z,95.02
2024-01-06T05:18:31.842Z,95.16
2024-01-06T05:21:00.570Z,94.92
2024-01-06T05:23:28.927Z,95.02
2024-01-06T05:25:57.051Z,94.99
2024-01-06T05:28:25.377Z,95.19
2024-01-06T05:30:53.725Z,95.18
2024-01-06T05:33:23.654Z,95.33
2024-01-06T05:35:52.186Z,95.44
2024-01-06T05:38:20.264Z,95.61
2024-01-06T05:40:48.789Z,95.75
2024-01-06T05:43:17.731Z,95.59
2024-01-06T05:45:47.129Z,95.66
2024-01-06T05:48:15.726Z,95.83
2024-01-06T05:50:45.440Z,95.69
2024-01-06T05:53:15.546Z,96.14
2024-01-06T05:55:43.827Z,95.98
2024-01-06T05:58:12.390Z,95.91
2024-01-06T06:00:41.290Z,95.78
2024-01-06T06:03:09.843Z,95.77
2024-01-06T06:05:38.592Z,95.86
2024-01-06T06:08:08.713Z,95.88
2024-01-06T06:10:53.295Z,95.71
2024-01-06T06:13:21.721Z,96.15
2024-01-06T06:15:50.370Z,96.24
2024-01-06T06:18:19.155Z,96.38
2024-01-06T06:20:47.318Z,96.32
2024-01-06T06:23:17.217Z,96.69
2024-01-06T06:25:45.269Z,96.41
2024-01-06T06:28:13.782Z,96.70
2024-01-06T06:30:42.484Z,96.29
2024-01-06T06:33:10.739Z,96.57
2024-01-06T06:35:38.932Z,96.22
2024-01-06T06:38:07.414Z,96.41
2024-01-06T06:40:37.004Z,96.65
2024-01-06T06:43:06.414Z,96.67
2024-01-06T06:45:34.706Z,96.59
2024-01-06T06:48:03.414Z,96.17
2024-01-06T06:50:31.733Z,96.38
2024-01-06T06:53:00.097Z,96.22
2024-01-06T06:55:28.491Z,96.29
2024-01-06T06:57:58.250Z,96.46
2024-01-06T07:00:26.810Z,95.80
2024-01-06T07:02:55.108Z,95.72
2024-01-06T07:05:23.337Z,96.18
2024-01-06T07:07:51.794Z,95.90
2024-01-06T07:10:19.992Z,95.75
2024-01-06T07:12:48.286Z,96.10
2024-01-06T07:15:18.675Z,96.36
2024-01-06T07:17:47.412Z,96.02
2024-01-06T07:20:16.377Z,95.99
2024-01-06T07:22:45.340Z,96.38
2024-01-06T07:25:14.165Z,95.81
2024-01-06T07:27:42.518Z,96.39
2024-01-06T07:30:13.019Z,96.07
2024-01-06T07:32:43.542Z,96.27
2024-01-06T07:35:12.275Z,95.71
2024-01-06T07:37:40.526Z,95.74
2024-01-06T07:40:09.472Z,95.71
2024-01-06T07:42:38.203Z,96.18
2024-01-06T07:45:07.722Z,96.35
2024-01-06T07:47:36.179Z,96.42
2024-01-06T07:50:06.496Z,95.75
2024-01-06T07:52:35.263Z,96.00
2024-01-06T07:55:04.316Z,95.76
2024-01-06T07:57:32.590Z,96.37
2024-01-06T08:00:05.429Z,96.14
2024-01-06T08:02:40.463Z,95.73
2024-01-06T08:05:10.905Z,95.79
2024-01-06T08:07:39.561Z,96.24
2024-01-06T08:10:10.345Z,96.04
2024-01-06T08:12:39.022Z,95.78
2024-01-06T08:15:09.712Z,96.13
2024-01-06T08:17:38.877Z,95.59
2024-01-06T08:20:07.776Z,96.05
2024-01-06T08:22:37.232Z,96.34
2024-01-06T08:25:08.623Z,96.07
2024-01-06T08:27:37.090Z,95.80
2024-01-06T08:30:07.451Z,96.19
2024-01-06T08:32:35.935Z,95.89
2024-01-06T08:35:05.330Z,95.17
2024-01-06T08:37:33.505Z,95.05
2024-01-06T08:40:04.985Z,94.90
2024-01-06T08:42:33.554Z,94.63
2024-01-06T08:45:02.427Z,94.45
2024-01-06T08:47:30.675Z,94.34
2024-01-06T08:49:59.823Z,94.26
2024-01-06T08:52:28.732Z,94.56
2024-01-06T08:54:57.277Z,93.75
2024-01-06T08:57:27.032Z,92.74
2024-01-06T08:59:55.025Z,92.99
2024-01-06T09:02:24.930Z,92.90
2024-01-06T09:04:53.007Z,92.24
2024-01-06T09:07:21.320Z,92.42
2024-01-06T09:09:49.887Z,92.80
2024-01-06T09:12:17.934Z,92.37
2024-01-06T09:14:49.352Z,92.02
2024-01-06T09:17:17.635Z,92.01
2024-01-06T09:19:45.905Z,91.97
2024-01-06T09:22:14.593Z,91.42
2024-01-06T09:24:43.131Z,90.59
2024-01-06T09:27:14.145Z,90.70
2024-01-06T09:29:42.756Z,90.16
2024-01-06T09:32:14.111Z,90.47
2024-01-06T09:34:42.353Z,90.23
2024-01-06T09:37:11.026Z,89.78
2024-01-06T09:39:40.670Z,89.55
2024-01-06T09:42:10.174Z,89.10
2024-01-06T09:44:40.475Z,87.72
2024-01-06T09:47:14.477Z,87.63
2024-01-06T09:49:50.844Z,87.74
2024-01-06T09:52:24.792Z,87.30
2024-01-06T09:54:55.583Z,86.97
2024-01-06T09:57:25.762Z,86.64
2024-01-06T09:59:54.793Z,87.52
2024-01-06T10:02:26.108Z,87.09
2024-01-06T10:04:56.297Z,87.42
2024-01-06T10:07:24.554Z,87.73
2024-01-06T10:09:53.156Z,86.93
2024-01-06T10:12:25.993Z,85.05
2024-01-06T10:14:54.448Z,85.54
2024-01-06T10:17:24.955Z,85.65
2024-01-06T10:19:55.048Z,84.58
2024-01-06T10:22:24.352Z,85.64
2024-01-06T10:24:52.873Z,86.22
2024-01-06T10:27:21.449Z,87.04
2024-01-06T10:29:49.631Z,86.75
2024-01-06T10:32:18.590Z,86.46
2024-01-06T10:34:48.971Z,86.42
2024-01-06T10:37:20.066Z,85.84
2024-01-06T10:39:47.233Z,85.00
2024-01-06T10:42:17.628Z,85.65
2024-01-06T10:44:47.752Z,86.41
2024-01-06T10:47:19.269Z,85.96
2024-01-06T10:49:54.674Z,85.96
2024-01-06T10:52:26.378Z,86.04
2024-01-06T10:54:56.635Z,87.22
2024-01-06T10:57:25.790Z,88.09
2024-01-06T10:59:54.839Z,87.94
2024-01-06T11:02:24.857Z,87.14
2024-01-06T11:04:55.334Z,87.04
2024-01-06T11:07:25.703Z,86.88
2024-01-06T11:09:59.568Z,87.22
2024-01-06T11:12:28.636Z,87.82
2024-01-06T11:14:57.330Z,87.70
2024-01-06T11:17:56.810Z,87.97
2024-01-06T11:20:28.204Z,87.98
2024-01-06T11:22:57.440Z,88.35
2024-01-06T11:25:29.033Z,88.82
2024-01-06T11:27:58.539Z,88.49
2024-01-06T11:30:29.672Z,88.55
2024-01-06T11:33:00.265Z,89.20
2024-01-06T11:35:30.597Z,89.07
2024-01-06T11:38:02.594Z,89.42
2024-01-06T11:40:35.403Z,89.57
2024-01-06T11:43:07.045Z,88.46
2024-01-06T11:45:36.699Z,87.45
2024-01-06T11:48:06.813Z,87.95
2024-01-06T11:50:38.387Z,88.38
2024-01-06T11:53:11.332Z,88.38
2024-01-06T11:55:43.765Z,88.88
2024-01-06T11:58:13.875Z,88.82
2024-01-06T12:00:42.552Z,89.14
2024-01-06T12:03:11.796Z,88.60
2024-01-06T12:05:41.453Z,88.80
2024-01-06T12:08:09.753Z,89.39
2024-01-06T12:10:38.337Z,89.15
2024-01-06T12:13:10.507Z,89.90
2024-01-06T12:15:41.477Z,89.36
2024-01-06T12:18:10.829Z,89.76
2024-01-06T12:20:39.545Z,89.49
2024-01-06T12:23:09.040Z,90.41
2024-01-06T12:25:40.488Z,90.47
2024-01-06T12:28:10.142Z,90.41
2024-01-06T12:30:40.998Z,90.81
2024-01-06T12:33:09.989Z,90.38
2024-01-06T12:35:38.881Z,90.86
2024-01-06T12:38:09.008Z,90.70
2024-01-06T12:40:41.144Z,91.04
2024-01-06T12:43:09.890Z,91.55
2024-01-06T12:45:38.085Z,91.01
2024-01-06T12:48:07.436Z,91.41
2024-01-06T12:50:35.828Z,91.38
2024-01-06T12:53:04.027Z,91.72
2024-01-06T12:55:32.236Z,92.11
2024-01-06T12:58:05.188Z,91.98
2024-01-06T13:00:37.197Z,91.71
2024-01-06T13:03:07.187Z,91.09
2024-01-06T13:05:35.338Z,90.73
2024-01-06T13:08:04.613Z,90.47
2024-01-06T13:10:33.172Z,91.29
2024-01-06T13:13:03.025Z,91.40
2024-01-06T13:15:31.824Z,91.20
2024-01-06T13:18:00.293Z,91.93
2024-01-06T13:20:28.360Z,91.99
2024-01-06T13:22:56.750Z,92.15
2024-01-06T13:25:24.905Z,92.13
2024-01-06T13:27:54.011Z,92.30
2024-01-06T13:30:26.796Z,92.49
2024-01-06T13:32:56.282Z,92.05
2024-01-06T13:35:26.455Z,92.27
2024-01-06T13:37:57.081Z,92.47
2024-01-06T13:40:26.921Z,92.92
2024-01-06T13:42:56.059Z,93.03
2024-01-06T13:45:26.794Z,92.84
2024-01-06T13:47:55.456Z,92.43
2024-01-06T13:50:24.290Z,92.68
2024-01-06T13:52:53.443Z,92.91
2024-01-06T13:55:22.185Z,93.10
2024-01-06T13:57:51.031Z,93.30
2024-01-06T14:00:21.818Z,93.33
2024-01-06T14:02:52.508Z,93.12
2024-01-06T14:05:22.009Z,92.92
2024-01-06T14:07:52.110Z,93.17
2024-01-06T14:10:21.008Z,92.78
2024-01-06T14:12:50.954Z,92.61
2024-01-06T14:15:20.351Z,93.22
2024-01-06T14:17:51.596Z,92.75
2024-01-06T14:20:21.982Z,92.90
2024-01-06T14:22:51.335Z,93.34
2024-01-06T14:25:21.062Z,93.22
2024-01-06T14:27:49.735Z,93.47
2024-01-06T14:30:18.582Z,93.23
2024-01-06T14:32:47.811Z,93.52
2024-01-06T14:35:17.557Z,93.75
2024-01-06T14:37:47.509Z,93.31
2024-01-06T14:40:19.467Z,93.71
2024-01-06T14:42:48.780Z,93.54
2024-01-06T14:45:19.655Z,93.43
2024-01-06T14:47:51.705Z,93.65
2024-01-06T14:50:20.907Z,94.13
2024-01-06T14:52:51.356Z,94.08
2024-01-06T14:55:44.971Z,93.70
2024-01-06T14:58:13.762Z,93.98
2024-01-06T15:00:42.600Z,93.90
2024-01-06T15:03:11.174Z,94.03
2024-01-06T15:05:40.126Z,94.48
2024-01-06T15:08:10.430Z,94.03
2024-01-06T15:10:40.091Z,93.99
2024-01-06T15:13:08.743Z,94.08
2024-01-06T15:15:38.419Z,94.19
2024-01-06T15:18:10.182Z,94.32
2024-01-06T15:20:41.547Z,94.60
2024-01-06T15:23:12.800Z,94.36
2024-01-06T15:25:43.310Z,93.98
2024-01-06T15:28:12.268Z,94.25
2024-01-06T15:30:40.696Z,94.05
2024-01-06T15:33:09.600Z,94.46
2024-01-06T15:35:38.464Z,94.09
2024-01-06T15:38:07.258Z,94.44
2024-01-06T15:40:38.265Z,94.10
2024-01-06T15:43:06.712Z,94.42
2024-01-06T15:45:36.077Z,94.49
2024-01-06T15:48:05.218Z,94.21
2024-01-06T15:50:34.187Z,94.35
2024-01-06T15:53:02.892Z,94.58
2024-01-06T15:55:31.421Z,94.43
2024-01-06T15:58:01.032Z,94.66
2024-01-06T16:00:29.228Z,94.36
2024-01-06T16:02:57.538Z,94.37
2024-01-06T16:05:25.655Z,94.30
2024-01-06T16:07:54.383Z,94.02
2024-01-06T16:10:23.013Z,94.25
2024-01-06T16:12:52.381Z,94.14
2024-01-06T16:15:22.155Z,94.26
2024-01-06T16:17:51.228Z,94.57
2024-01-06T16:20:19.800Z,94.18
2024-01-06T16:22:48.250Z,94.18
2024-01-06T16:25:16.314Z,94.25
2024-01-06T16:27:45.138Z,94.40
2024-01-06T16:30:16.239Z,94.56
2024-01-06T16:32:48.529Z,94.57
2024-01-06T16:35:16.877Z,94.63
2024-01-06T16:37:45.042Z,94.57
2024-01-06T16:40:14.089Z,94.54
2024-01-06T16:42:42.200Z,94.88
2024-01-06T16:45:11.544Z,94.87
2024-01-06T16:47:39.690Z,94.76
2024-01-06T16:50:10.941Z,94.64
2024-01-06T16:52:40.123Z,94.51
2024-01-06T16:55:09.768Z,94.87
2024-01-06T16:57:38.831Z,94.86
2024-01-06T17:00:11.000Z,94.80
2024-01-06T17:02:39.909Z,94.78
2024-01-06T17:05:10.493Z,94.92
2024-01-06T17:07:42.066Z,94.78
2024-01-06T17:10:11.891Z,94.82
2024-01-06T17:12:40.250Z,94.59
2024-01-06T17:15:10.204Z,94.63
2024-01-06T17:17:40.139Z,94.84
2024-01-06T17:20:11.984Z,94.77
2024-01-06T17:22:40.611Z,94.88
2024-01-06T17:25:15.530Z,94.93
2024-01-06T17:27:43.678Z,94.76
2024-01-06T17:30:12.643Z,94.85
2024-01-06T17:32:40.789Z,94.90
2024-01-06T17:35:11.869Z,94.88
2024-01-06T17:37:40.259Z,94.51
2024-01-06T17:40:09.755Z,94.95
2024-01-06T17:42:38.585Z,95.04
2024-01-06T17:45:07.503Z,95.10
2024-01-06T17:47:37.101Z,95.40
2024-01-06T17:50:06.525Z,95.36
2024-01-06T17:52:36.100Z,95.22
2024-01-06T17:55:04.585Z,95.23
2024-01-06T17:57:35.683Z,95.58
2024-01-06T18:00:08.630Z,95.34
2024-01-06T18:02:38.872Z,95.56
2024-01-06T18:05:08.811Z,95.40
2024-01-06T18:07:39.276Z,95.47
2024-01-06T18:10:10.332Z,95.34
2024-01-06T18:12:40.270Z,95.47
2024-01-06T18:15:08.487Z,95.47
2024-01-06T18:17:37.633Z,95.55
2024-01-06T18:20:07.382Z,95.27
2024-01-06T18:22:35.743Z,95.42
2024-01-06T18:25:06.334Z,95.46
2024-01-06T18:27:34.548Z,95.58
2024-01-06T18:30:02.656Z,95.39
2024-01-06T18:32:30.877Z,95.56
2024-01-06T18:34:59.275Z,95.53
2024-01-06T18:37:27.506Z,95.22
2024-01-06T18:39:55.630Z,95.37
2024-01-06T18:42:26.091Z,95.40
2024-01-06T18:44:54.456Z,95.59
2024-01-06T18:47:23.693Z,95.39
2024-01-06T18:49:51.959Z,95.21
2024-01-06T18:52:20.214Z,95.12
2024-01-06T18:54:48.562Z,95.38
2024-01-06T18:57:19.227Z,95.21
2024-01-06T18:59:51.824Z,95.10
2024-01-06T19:02:24.775Z,95.12
2024-01-06T19:04:52.882Z,95.21
2024-01-06T19:07:21.120Z,95.18
2024-01-06T19:09:49.677Z,95.14
2024-01-06T19:12:18.127Z,95.16
2024-01-06T19:14:47.086Z,95.51
2024-01-06T19:17:16.790Z,95.25
2024-01-06T19:19:45.599Z,95.12
2024-01-06T19:22:13.804Z,95.12
2024-01-06T19:24:44.085Z,95.21
2024-01-06T19:27:12.795Z,94.99
2024-01-06T19:29:44.539Z,94.88
2024-01-06T19:32:13.086Z,95.13
2024-01-06T19:34:43.053Z,95.02
2024-01-06T19:37:11.535Z,94.56
2024-01-06T19:39:39.645Z,94.78
2024-01-06T19:42:08.174Z,94.65
2024-01-06T19:44:36.407Z,94.75
2024-01-06T19:47:04.917Z,94.97
2024-01-06T19:49:33.460Z,94.69
2024-01-06T19:52:03.748Z,94.84
2024-01-06T19:54:33.480Z,95.26
2024-01-06T19:57:02.127Z,94.92
2024-01-06T19:59:30.180Z,95.24
2024-01-06T20:01:58.331Z,95.02
2024-01-06T20:04:27.255Z,94.68
2024-01-06T20:06:55.804Z,94.69
2024-01-06T20:09:25.332Z,94.55
2024-01-06T20:11:53.980Z,94.82
2024-01-06T20:14:22.124Z,94.51
2024-01-06T20:16:50.451Z,94.35
2024-01-06T20:19:19.147Z,94.31
2024-01-06T20:21:47.411Z,94.36
2024-01-06T20:24:15.612Z,94.30
2024-01-06T20:26:45.225Z,94.49
2024-01-06T20:29:13.646Z,94.63
2024-01-06T20:31:41.906Z,94.70
2024-01-06T20:34:11.149Z,94.62
2024-01-06T20:36:39.461Z,94.48
2024-01-06T20:39:07.541Z,94.49
2024-01-06T20:41:35.739Z,94.18
2024-01-06T20:44:07.589Z,94.12
2024-01-06T20:46:37.508Z,94.45
2024-01-06T20:49:05.561Z,94.54
2024-01-06T20:51:35.576Z,94.27
2024-01-06T20:54:03.822Z,94.51
2024-01-06T20:56:32.045Z,94.83
2024-01-06T20:59:00.156Z,94.48
2024-01-06T21:01:29.658Z,94.54
2024-01-06T21:03:57.692Z,94.78
2024-01-06T21:06:27.630Z,94.51
2024-01-06T21:08:55.997Z,94.44
2024-01-06T21:11:24.194Z,94.60
2024-01-06T21:13:52.234Z,94.58
2024-01-06T21:16:20.331Z,94.85
2024-01-06T21:18:50.339Z,94.14
2024-01-06T21:21:20.225Z,94.21
2024-01-06T21:23:49.726Z,94.35
2024-01-06T21:26:18.339Z,94.18
2024-01-06T21:28:48.548Z,94.44
2024-01-06T21:31:17.225Z,94.49
2024-01-06T21:33:46.915Z,94.36
2024-01-06T21:36:17.878Z,94.47
2024-01-06T21:38:46.174Z,94.17
2024-01-06T21:41:15.041Z,94.38
2024-01-06T21:43:43.527Z,94.53
2024-01-06T21:46:11.588Z,94.59
2024-01-06T21:48:40.686Z,94.16
2024-01-06T21:51:08.840Z,94.20
2024-01-06T21:53:39.207Z,94.26
2024-01-06T21:56:07.786Z,94.53
2024-01-06T21:58:35.919Z,94.40
2024-01-06T22:01:04.296Z,94.38
2024-01-06T22:03:32.519Z,94.57
2024-01-06T22:06:00.959Z,94.30
2024-01-06T22:08:29.587Z,94.70
2024-01-06T22:10:58.979Z,94.39
2024-01-06T22:13:26.963Z,94.68
2024-01-06T22:15:55.169Z,94.73
2024-01-06T22:18:24.092Z,94.40
2024-01-06T22:20:53.165Z,94.31
2024-01-06T22:23:21.158Z,94.68
2024-01-06T22:25:49.225Z,94.74
2024-01-06T22:28:18.841Z,94.47
2024-01-06T22:30:47.392Z,94.08
2024-01-06T22:33:16.537Z,94.43
2024-01-06T22:35:45.063Z,94.35
2024-01-06T22:38:13.143Z,94.65
2024-01-06T22:40:41.307Z,94.82
2024-01-06T22:43:09.489Z,94.33
2024-01-06T22:45:39.920Z,94.32
2024-01-06T22:48:08.467Z,94.61
2024-01-06T22:50:37.066Z,94.47
2024-01-06T22:53:07.006Z,94.15
2024-01-06T22:55:35.168Z,94.46
2024-01-06T22:58:03.282Z,94.80
2024-01-06T23:00:37.159Z,94.22
2024-01-06T23:03:07.961Z,94.21
2024-01-06T23:05:36.141Z,94.04
2024-01-06T23:08:04.626Z,93.87
2024-01-06T23:10:33.167Z,93.42
2024-01-06T23:13:01.303Z,93.46
2024-01-06T23:15:29.625Z,93.23
2024-01-06T23:17:58.506Z,93.06
2024-01-06T23:20:28.097Z,92.62
2024-01-06T23:22:56.113Z,92.30
2024-01-06T23:25:24.823Z,91.24
2024-01-06T23:27:52.929Z,90.89
2024-01-06T23:30:21.929Z,90.86
2024-01-06T23:32:50.211Z,91.19
2024-01-06T23:35:18.532Z,90.48
2024-01-06T23:37:51.680Z,90.16
2024-01-06T23:40:21.018Z,90.48
2024-01-06T23:42:49.203Z,90.27
2024-01-06T23:45:17.577Z,89.75
2024-01-06T23:47:45.725Z,89.67
2024-01-06T23:50:13.914Z,88.96
2024-01-06T23:52:42.754Z,89.19
2024-01-06T23:55:13.069Z,88.48
2024-01-06T23:57:41.444Z,88.49
